Terminal Aerodrome Forecast
Issued by NWS Wakefield, VA

Home | Current Version | Previous Version | Text Only | Print | Product List | Glossary On
Versions: 1 2 3 4 5 6 7 8 9 10 11 12 13 14 15 16
490
FTUS41 KAKQ 231125
TAFSBY
TAF
KSBY 231125Z 2312/2412 20005KT P6SM BKN050
     FM231500 22009KT P6SM BKN060
     FM231900 22011KT P6SM SCT120
     FM232300 18007KT P6SM SCT150
     FM240600 VRB03KT 2SM BR SCT250=

USA.gov is the U.S. government's official web portal to all federal, state and local government web resources and services.